Ames, South Dakota
Current Conditions -  °F | °C
As of 5:53 AM on Monday 24 Nov 2014 (Local Time) from KPIR Reporting Station
Clear Clear  
Wind Chill:   Ceiling: Unl
Heat Index: 20°   Visibility: 10mi
Dew Point: 14°   Wind: 22mph
Humidity: 78%   Direction: 330°NNW
Pressure: 29.72"   Gusts: 32mph
Location:  44.3693°N, 100.04°W
Report Text: KPIR 241153Z AUTO 33019G28KT 10SM CLR M07/M10 A2972 RMK AO2 PK WND 32029/1137 SLP086 T10671100 11033 21067 51012
Loading
Personal Weather Stations






























Interactive Weather Map New forecast layout! Learn more

10-Day Weather Forecast

Advertisements
Track Severe Weather on mobile